sensor_id;sensor_type;location;lat;lon;timestamp;P1;durP1;ratioP1;P2;durP2;ratioP2
76409;SDS011;65238;42.662;23.280;2024-03-23T00:54:24;14.65;;;7.90;;
76409;SDS011;65238;42.662;23.280;2024-03-23T00:56:50;16.38;;;8.20;;
76409;SDS011;65238;42.662;23.280;2024-03-23T00:59:15;15.85;;;7.97;;
76409;SDS011;65238;42.662;23.280;2024-03-23T01:01:40;14.25;;;8.15;;
76409;SDS011;65238;42.662;23.280;2024-03-23T01:04:06;15.70;;;8.05;;
76409;SDS011;65238;42.662;23.280;2024-03-23T01:06:31;15.82;;;7.13;;
76409;SDS011;65238;42.662;23.280;2024-03-23T01:08:57;12.52;;;7.80;;
76409;SDS011;65238;42.662;23.280;2024-03-23T01:11:22;15.60;;;6.72;;
76409;SDS011;65238;42.662;23.280;2024-03-23T01:13:47;14.38;;;6.57;;
76409;SDS011;65238;42.662;23.280;2024-03-23T01:16:13;12.50;;;6.45;;
76409;SDS011;65238;42.662;23.280;2024-03-23T01:18:38;13.63;;;5.90;;
76409;SDS011;65238;42.662;23.280;2024-03-23T01:21:04;13.85;;;6.70;;
76409;SDS011;65238;42.662;23.280;2024-03-23T01:23:29;14.63;;;6.60;;
76409;SDS011;65238;42.662;23.280;2024-03-23T01:25:55;16.08;;;6.70;;
76409;SDS011;65238;42.662;23.280;2024-03-23T01:28:21;14.30;;;6.47;;
76409;SDS011;65238;42.662;23.280;2024-03-23T01:30:47;13.55;;;6.25;;
76409;SDS011;65238;42.662;23.280;2024-03-23T01:33:12;14.70;;;6.72;;
76409;SDS011;65238;42.662;23.280;2024-03-23T01:35:38;18.13;;;6.20;;
76409;SDS011;65238;42.662;23.280;2024-03-23T01:38:03;14.43;;;6.18;;
76409;SDS011;65238;42.662;23.280;2024-03-23T01:40:29;11.43;;;6.10;;
76409;SDS011;65238;42.662;23.280;2024-03-23T01:42:57;14.52;;;6.65;;
76409;SDS011;65238;42.662;23.280;2024-03-23T01:45:24;14.75;;;6.20;;
76409;SDS011;65238;42.662;23.280;2024-03-23T01:47:52;10.55;;;5.63;;
76409;SDS011;65238;42.662;23.280;2024-03-23T01:50:18;11.98;;;5.40;;
76409;SDS011;65238;42.662;23.280;2024-03-23T01:52:44;11.27;;;5.10;;
76409;SDS011;65238;42.662;23.280;2024-03-23T01:55:10;8.88;;;4.82;;
76409;SDS011;65238;42.662;23.280;2024-03-23T01:57:36;12.88;;;4.90;;
76409;SDS011;65238;42.662;23.280;2024-03-23T02:00:01;9.73;;;5.15;;
76409;SDS011;65238;42.662;23.280;2024-03-23T02:02:27;13.48;;;5.10;;
76409;SDS011;65238;42.662;23.280;2024-03-23T02:04:52;12.00;;;5.15;;
76409;SDS011;65238;42.662;23.280;2024-03-23T02:07:17;10.25;;;4.88;;
76409;SDS011;65238;42.662;23.280;2024-03-23T02:09:43;13.35;;;5.75;;
76409;SDS011;65238;42.662;23.280;2024-03-23T02:12:09;13.18;;;5.78;;
76409;SDS011;65238;42.662;23.280;2024-03-23T02:14:34;11.48;;;5.65;;
76409;SDS011;65238;42.662;23.280;2024-03-23T02:17:00;15.23;;;6.00;;
76409;SDS011;65238;42.662;23.280;2024-03-23T02:19:25;13.05;;;5.63;;
76409;SDS011;65238;42.662;23.280;2024-03-23T02:21:50;14.48;;;6.28;;
76409;SDS011;65238;42.662;23.280;2024-03-23T02:24:16;11.32;;;6.13;;
76409;SDS011;65238;42.662;23.280;2024-03-23T02:26:41;11.50;;;6.38;;
76409;SDS011;65238;42.662;23.280;2024-03-23T02:29:07;14.73;;;7.40;;
76409;SDS011;65238;42.662;23.280;2024-03-23T02:31:34;13.63;;;7.32;;
76409;SDS011;65238;42.662;23.280;2024-03-23T02:33:59;16.75;;;8.35;;
76409;SDS011;65238;42.662;23.280;2024-03-23T02:36:24;18.40;;;8.32;;
76409;SDS011;65238;42.662;23.280;2024-03-23T02:38:50;16.63;;;8.32;;
76409;SDS011;65238;42.662;23.280;2024-03-23T02:41:15;17.33;;;9.05;;
76409;SDS011;65238;42.662;23.280;2024-03-23T02:46:13;19.25;;;8.95;;
76409;SDS011;65238;42.662;23.280;2024-03-23T02:48:38;18.77;;;9.13;;
76409;SDS011;65238;42.662;23.280;2024-03-23T02:51:04;18.70;;;9.00;;
76409;SDS011;65238;42.662;23.280;2024-03-23T02:53:29;15.10;;;8.10;;
76409;SDS011;65238;42.662;23.280;2024-03-23T02:55:57;17.00;;;8.70;;
76409;SDS011;65238;42.662;23.280;2024-03-23T02:58:23;14.85;;;8.43;;
76409;SDS011;65238;42.662;23.280;2024-03-23T03:00:48;19.48;;;8.77;;
76409;SDS011;65238;42.662;23.280;2024-03-23T03:03:13;16.73;;;8.57;;
76409;SDS011;65238;42.662;23.280;2024-03-23T03:05:39;15.05;;;7.38;;
76409;SDS011;65238;42.662;23.280;2024-03-23T03:08:04;18.05;;;8.35;;
76409;SDS011;65238;42.662;23.280;2024-03-23T03:10:30;16.92;;;7.60;;
76409;SDS011;65238;42.662;23.280;2024-03-23T03:12:57;16.77;;;6.15;;
76409;SDS011;65238;42.662;23.280;2024-03-23T03:15:22;13.80;;;6.10;;
76409;SDS011;65238;42.662;23.280;2024-03-23T03:17:48;12.00;;;6.53;;
76409;SDS011;65238;42.662;23.280;2024-03-23T03:20:13;13.57;;;6.38;;
76409;SDS011;65238;42.662;23.280;2024-03-23T03:22:40;13.20;;;5.95;;
76409;SDS011;65238;42.662;23.280;2024-03-23T03:25:06;13.75;;;6.22;;
76409;SDS011;65238;42.662;23.280;2024-03-23T03:27:32;14.38;;;5.82;;
76409;SDS011;65238;42.662;23.280;2024-03-23T03:29:57;17.90;;;6.38;;
76409;SDS011;65238;42.662;23.280;2024-03-23T03:32:24;14.77;;;6.25;;
76409;SDS011;65238;42.662;23.280;2024-03-23T03:34:49;14.15;;;5.93;;
76409;SDS011;65238;42.662;23.280;2024-03-23T03:37:15;15.00;;;6.10;;
76409;SDS011;65238;42.662;23.280;2024-03-23T03:39:40;13.90;;;6.13;;
76409;SDS011;65238;42.662;23.280;2024-03-23T03:42:06;10.18;;;5.60;;
76409;SDS011;65238;42.662;23.280;2024-03-23T03:44:32;14.32;;;6.82;;
76409;SDS011;65238;42.662;23.280;2024-03-23T03:46:58;12.55;;;6.20;;
76409;SDS011;65238;42.662;23.280;2024-03-23T03:49:23;14.73;;;6.65;;
76409;SDS011;65238;42.662;23.280;2024-03-23T03:51:49;12.70;;;6.57;;
76409;SDS011;65238;42.662;23.280;2024-03-23T03:54:14;11.35;;;5.90;;
76409;SDS011;65238;42.662;23.280;2024-03-23T03:56:40;11.73;;;6.72;;
76409;SDS011;65238;42.662;23.280;2024-03-23T03:59:05;12.23;;;5.85;;
76409;SDS011;65238;42.662;23.280;2024-03-23T04:01:30;13.45;;;6.03;;
76409;SDS011;65238;42.662;23.280;2024-03-23T04:03:56;12.90;;;6.30;;
76409;SDS011;65238;42.662;23.280;2024-03-23T04:06:21;14.20;;;7.40;;
76409;SDS011;65238;42.662;23.280;2024-03-23T04:08:46;13.70;;;6.47;;
76409;SDS011;65238;42.662;23.280;2024-03-23T04:11:12;16.25;;;7.13;;
76409;SDS011;65238;42.662;23.280;2024-03-23T04:13:37;14.32;;;6.47;;
76409;SDS011;65238;42.662;23.280;2024-03-23T04:16:03;16.80;;;8.05;;
76409;SDS011;65238;42.662;23.280;2024-03-23T04:18:28;18.58;;;7.63;;
76409;SDS011;65238;42.662;23.280;2024-03-23T04:20:54;17.08;;;7.90;;
76409;SDS011;65238;42.662;23.280;2024-03-23T04:23:19;17.70;;;8.13;;
76409;SDS011;65238;42.662;23.280;2024-03-23T04:25:46;15.85;;;8.15;;
76409;SDS011;65238;42.662;23.280;2024-03-23T04:28:11;20.35;;;7.70;;
76409;SDS011;65238;42.662;23.280;2024-03-23T04:30:37;14.65;;;6.68;;
76409;SDS011;65238;42.662;23.280;2024-03-23T04:33:02;20.73;;;7.72;;
76409;SDS011;65238;42.662;23.280;2024-03-23T04:35:27;18.23;;;8.45;;
76409;SDS011;65238;42.662;23.280;2024-03-23T04:37:53;16.77;;;7.75;;
76409;SDS011;65238;42.662;23.280;2024-03-23T04:40:20;16.33;;;6.60;;
76409;SDS011;65238;42.662;23.280;2024-03-23T04:42:46;15.32;;;7.93;;
76409;SDS011;65238;42.662;23.280;2024-03-23T04:45:11;14.77;;;7.72;;
76409;SDS011;65238;42.662;23.280;2024-03-23T04:47:40;15.68;;;7.43;;
76409;SDS011;65238;42.662;23.280;2024-03-23T04:50:05;18.77;;;7.80;;
76409;SDS011;65238;42.662;23.280;2024-03-23T04:52:31;18.52;;;7.75;;
76409;SDS011;65238;42.662;23.280;2024-03-23T04:54:56;17.42;;;9.13;;
76409;SDS011;65238;42.662;23.280;2024-03-23T04:57:22;20.00;;;9.25;;
76409;SDS011;65238;42.662;23.280;2024-03-23T04:59:48;25.75;;;10.13;;
76409;SDS011;65238;42.662;23.280;2024-03-23T05:02:13;20.33;;;9.43;;
76409;SDS011;65238;42.662;23.280;2024-03-23T05:04:39;20.73;;;8.30;;
76409;SDS011;65238;42.662;23.280;2024-03-23T05:07:08;20.15;;;9.70;;
76409;SDS011;65238;42.662;23.280;2024-03-23T05:09:33;23.45;;;9.82;;
76409;SDS011;65238;42.662;23.280;2024-03-23T05:11:59;23.48;;;10.23;;
76409;SDS011;65238;42.662;23.280;2024-03-23T05:14:27;22.20;;;10.10;;
76409;SDS011;65238;42.662;23.280;2024-03-23T05:16:53;22.90;;;10.40;;
76409;SDS011;65238;42.662;23.280;2024-03-23T05:19:19;38.55;;;16.98;;
76409;SDS011;65238;42.662;23.280;2024-03-23T05:21:44;43.38;;;19.23;;
76409;SDS011;65238;42.662;23.280;2024-03-23T05:24:10;44.38;;;18.95;;
76409;SDS011;65238;42.662;23.280;2024-03-23T05:26:36;40.10;;;18.33;;
76409;SDS011;65238;42.662;23.280;2024-03-23T05:29:02;38.78;;;16.10;;
76409;SDS011;65238;42.662;23.280;2024-03-23T05:31:28;25.67;;;11.98;;
76409;SDS011;65238;42.662;23.280;2024-03-23T05:33:55;27.95;;;12.30;;
76409;SDS011;65238;42.662;23.280;2024-03-23T05:36:20;26.80;;;11.93;;
76409;SDS011;65238;42.662;23.280;2024-03-23T05:38:46;26.90;;;12.93;;
76409;SDS011;65238;42.662;23.280;2024-03-23T05:41:12;23.65;;;11.50;;
76409;SDS011;65238;42.662;23.280;2024-03-23T05:43:37;23.88;;;12.02;;
76409;SDS011;65238;42.662;23.280;2024-03-23T05:46:03;25.92;;;12.68;;
76409;SDS011;65238;42.662;23.280;2024-03-23T05:48:33;22.90;;;12.50;;
76409;SDS011;65238;42.662;23.280;2024-03-23T05:50:58;28.08;;;13.50;;
76409;SDS011;65238;42.662;23.280;2024-03-23T05:53:24;24.25;;;12.93;;
76409;SDS011;65238;42.662;23.280;2024-03-23T05:55:50;28.88;;;12.77;;
76409;SDS011;65238;42.662;23.280;2024-03-23T05:58:16;25.10;;;12.82;;
76409;SDS011;65238;42.662;23.280;2024-03-23T06:00:42;26.90;;;12.57;;
76409;SDS011;65238;42.662;23.280;2024-03-23T06:03:08;24.60;;;12.93;;
76409;SDS011;65238;42.662;23.280;2024-03-23T06:05:35;25.83;;;13.73;;
76409;SDS011;65238;42.662;23.280;2024-03-23T06:08:00;29.58;;;13.40;;
76409;SDS011;65238;42.662;23.280;2024-03-23T06:10:25;24.83;;;13.00;;
76409;SDS011;65238;42.662;23.280;2024-03-23T06:12:51;27.50;;;13.90;;
76409;SDS011;65238;42.662;23.280;2024-03-23T06:15:19;25.95;;;13.18;;
76409;SDS011;65238;42.662;23.280;2024-03-23T06:17:45;23.85;;;13.02;;
76409;SDS011;65238;42.662;23.280;2024-03-23T06:20:12;32.60;;;13.98;;
76409;SDS011;65238;42.662;23.280;2024-03-23T06:22:37;26.80;;;14.10;;
76409;SDS011;65238;42.662;23.280;2024-03-23T06:25:03;27.25;;;14.25;;
76409;SDS011;65238;42.662;23.280;2024-03-23T06:27:29;30.17;;;13.95;;
76409;SDS011;65238;42.662;23.280;2024-03-23T06:29:54;26.63;;;13.57;;
76409;SDS011;65238;42.662;23.280;2024-03-23T06:32:20;21.45;;;12.88;;
76409;SDS011;65238;42.662;23.280;2024-03-23T06:34:46;31.08;;;14.55;;
76409;SDS011;65238;42.662;23.280;2024-03-23T06:37:11;24.40;;;13.23;;
76409;SDS011;65238;42.662;23.280;2024-03-23T06:39:37;29.42;;;13.88;;
76409;SDS011;65238;42.662;23.280;2024-03-23T06:42:02;21.98;;;13.15;;
76409;SDS011;65238;42.662;23.280;2024-03-23T06:44:28;22.48;;;12.50;;
76409;SDS011;65238;42.662;23.280;2024-03-23T06:46:54;23.88;;;12.82;;
76409;SDS011;65238;42.662;23.280;2024-03-23T06:49:19;28.45;;;13.70;;
76409;SDS011;65238;42.662;23.280;2024-03-23T06:51:45;26.20;;;12.68;;
76409;SDS011;65238;42.662;23.280;2024-03-23T06:54:11;19.77;;;12.20;;
76409;SDS011;65238;42.662;23.280;2024-03-23T06:56:36;23.30;;;11.88;;
76409;SDS011;65238;42.662;23.280;2024-03-23T06:59:01;21.92;;;11.70;;
76409;SDS011;65238;42.662;23.280;2024-03-23T07:01:27;20.38;;;12.43;;
76409;SDS011;65238;42.662;23.280;2024-03-23T07:03:53;21.00;;;10.90;;
76409;SDS011;65238;42.662;23.280;2024-03-23T07:06:19;20.10;;;10.68;;
76409;SDS011;65238;42.662;23.280;2024-03-23T07:08:44;19.40;;;10.50;;
76409;SDS011;65238;42.662;23.280;2024-03-23T07:11:10;20.08;;;11.15;;
76409;SDS011;65238;42.662;23.280;2024-03-23T07:13:35;21.65;;;11.00;;
76409;SDS011;65238;42.662;23.280;2024-03-23T07:16:01;20.25;;;11.40;;
76409;SDS011;65238;42.662;23.280;2024-03-23T07:18:26;20.73;;;11.10;;
76409;SDS011;65238;42.662;23.280;2024-03-23T07:20:55;24.20;;;11.48;;
76409;SDS011;65238;42.662;23.280;2024-03-23T07:23:21;19.67;;;11.55;;
76409;SDS011;65238;42.662;23.280;2024-03-23T07:25:57;17.50;;;11.15;;
76409;SDS011;65238;42.662;23.280;2024-03-23T07:28:23;19.98;;;10.75;;
76409;SDS011;65238;42.662;23.280;2024-03-23T07:31:05;15.88;;;10.52;;
76409;SDS011;65238;42.662;23.280;2024-03-23T07:33:43;21.95;;;11.13;;
76409;SDS011;65238;42.662;23.280;2024-03-23T07:36:13;19.42;;;11.35;;
76409;SDS011;65238;42.662;23.280;2024-03-23T07:38:40;21.55;;;11.63;;
76409;SDS011;65238;42.662;23.280;2024-03-23T07:41:07;20.48;;;10.80;;
76409;SDS011;65238;42.662;23.280;2024-03-23T07:43:34;18.05;;;10.45;;
76409;SDS011;65238;42.662;23.280;2024-03-23T07:46:00;24.55;;;11.07;;
76409;SDS011;65238;42.662;23.280;2024-03-23T07:48:26;21.23;;;10.45;;
76409;SDS011;65238;42.662;23.280;2024-03-23T07:53:31;18.13;;;10.48;;
76409;SDS011;65238;42.662;23.280;2024-03-23T07:55:57;18.20;;;10.93;;
76409;SDS011;65238;42.662;23.280;2024-03-23T07:58:24;20.63;;;11.43;;
76409;SDS011;65238;42.662;23.280;2024-03-23T08:00:50;23.80;;;11.82;;
76409;SDS011;65238;42.662;23.280;2024-03-23T08:03:15;22.98;;;11.90;;
76409;SDS011;65238;42.662;23.280;2024-03-23T08:05:40;19.85;;;10.90;;
76409;SDS011;65238;42.662;23.280;2024-03-23T08:08:06;22.48;;;10.43;;
76409;SDS011;65238;42.662;23.280;2024-03-23T08:10:32;25.42;;;13.27;;
76409;SDS011;65238;42.662;23.280;2024-03-23T08:12:57;22.35;;;11.57;;
76409;SDS011;65238;42.662;23.280;2024-03-23T08:15:23;23.55;;;12.77;;
76409;SDS011;65238;42.662;23.280;2024-03-23T08:17:49;20.77;;;11.98;;
76409;SDS011;65238;42.662;23.280;2024-03-23T08:20:14;21.73;;;11.90;;
76409;SDS011;65238;42.662;23.280;2024-03-23T08:22:39;23.17;;;12.52;;
76409;SDS011;65238;42.662;23.280;2024-03-23T08:25:05;19.92;;;12.00;;
76409;SDS011;65238;42.662;23.280;2024-03-23T08:27:31;23.08;;;11.98;;
76409;SDS011;65238;42.662;23.280;2024-03-23T08:29:58;24.08;;;12.35;;
76409;SDS011;65238;42.662;23.280;2024-03-23T08:32:23;16.73;;;11.00;;
76409;SDS011;65238;42.662;23.280;2024-03-23T08:34:48;22.48;;;11.95;;
76409;SDS011;65238;42.662;23.280;2024-03-23T08:37:14;21.10;;;12.90;;
76409;SDS011;65238;42.662;23.280;2024-03-23T08:39:39;22.45;;;11.98;;
76409;SDS011;65238;42.662;23.280;2024-03-23T08:42:05;21.30;;;11.25;;
76409;SDS011;65238;42.662;23.280;2024-03-23T08:44:30;17.77;;;10.32;;
76409;SDS011;65238;42.662;23.280;2024-03-23T08:46:56;19.50;;;10.98;;
76409;SDS011;65238;42.662;23.280;2024-03-23T08:49:21;21.27;;;12.80;;
76409;SDS011;65238;42.662;23.280;2024-03-23T08:51:46;26.85;;;13.32;;
76409;SDS011;65238;42.662;23.280;2024-03-23T08:54:12;22.55;;;12.05;;
76409;SDS011;65238;42.662;23.280;2024-03-23T08:56:38;19.60;;;11.10;;
76409;SDS011;65238;42.662;23.280;2024-03-23T08:59:03;24.58;;;11.80;;
76409;SDS011;65238;42.662;23.280;2024-03-23T09:01:28;27.33;;;12.18;;
76409;SDS011;65238;42.662;23.280;2024-03-23T09:03:54;21.65;;;11.57;;
76409;SDS011;65238;42.662;23.280;2024-03-23T09:06:20;24.48;;;13.25;;
76409;SDS011;65238;42.662;23.280;2024-03-23T09:08:46;22.42;;;12.93;;
76409;SDS011;65238;42.662;23.280;2024-03-23T09:11:11;21.90;;;12.15;;
76409;SDS011;65238;42.662;23.280;2024-03-23T09:13:38;26.40;;;10.98;;
76409;SDS011;65238;42.662;23.280;2024-03-23T09:16:04;18.55;;;11.68;;
76409;SDS011;65238;42.662;23.280;2024-03-23T09:18:34;20.73;;;11.70;;
76409;SDS011;65238;42.662;23.280;2024-03-23T09:21:00;27.77;;;12.38;;
76409;SDS011;65238;42.662;23.280;2024-03-23T09:23:29;18.83;;;11.25;;
76409;SDS011;65238;42.662;23.280;2024-03-23T09:25:55;18.13;;;11.93;;
76409;SDS011;65238;42.662;23.280;2024-03-23T09:28:21;22.25;;;12.88;;
76409;SDS011;65238;42.662;23.280;2024-03-23T09:30:47;24.02;;;12.90;;
76409;SDS011;65238;42.662;23.280;2024-03-23T09:33:12;18.60;;;11.50;;
76409;SDS011;65238;42.662;23.280;2024-03-23T09:35:38;25.40;;;11.82;;
76409;SDS011;65238;42.662;23.280;2024-03-23T09:38:07;24.02;;;11.57;;
76409;SDS011;65238;42.662;23.280;2024-03-23T09:40:34;19.58;;;11.43;;
76409;SDS011;65238;42.662;23.280;2024-03-23T09:42:59;18.05;;;11.55;;
76409;SDS011;65238;42.662;23.280;2024-03-23T09:45:28;22.10;;;11.80;;
76409;SDS011;65238;42.662;23.280;2024-03-23T09:47:55;18.52;;;10.70;;
76409;SDS011;65238;42.662;23.280;2024-03-23T09:50:21;18.88;;;9.98;;
76409;SDS011;65238;42.662;23.280;2024-03-23T09:52:46;17.23;;;10.48;;
76409;SDS011;65238;42.662;23.280;2024-03-23T09:55:12;17.70;;;10.30;;
76409;SDS011;65238;42.662;23.280;2024-03-23T09:57:39;23.63;;;11.23;;
76409;SDS011;65238;42.662;23.280;2024-03-23T10:00:05;19.23;;;10.63;;
76409;SDS011;65238;42.662;23.280;2024-03-23T10:02:31;19.23;;;10.70;;
76409;SDS011;65238;42.662;23.280;2024-03-23T10:04:56;17.30;;;10.63;;
76409;SDS011;65238;42.662;23.280;2024-03-23T10:07:22;17.73;;;10.60;;
76409;SDS011;65238;42.662;23.280;2024-03-23T10:09:48;16.67;;;10.40;;
76409;SDS011;65238;42.662;23.280;2024-03-23T10:12:16;17.58;;;10.60;;
76409;SDS011;65238;42.662;23.280;2024-03-23T10:14:42;18.70;;;11.02;;
76409;SDS011;65238;42.662;23.280;2024-03-23T10:17:12;19.42;;;10.88;;
76409;SDS011;65238;42.662;23.280;2024-03-23T10:19:45;18.05;;;10.80;;
76409;SDS011;65238;42.662;23.280;2024-03-23T10:22:14;14.80;;;9.00;;
76409;SDS011;65238;42.662;23.280;2024-03-23T10:24:42;15.80;;;9.30;;
76409;SDS011;65238;42.662;23.280;2024-03-23T10:27:08;14.07;;;8.82;;
76409;SDS011;65238;42.662;23.280;2024-03-23T10:29:33;12.88;;;8.43;;
76409;SDS011;65238;42.662;23.280;2024-03-23T10:32:08;17.95;;;9.60;;
76409;SDS011;65238;42.662;23.280;2024-03-23T10:34:38;16.60;;;8.93;;
76409;SDS011;65238;42.662;23.280;2024-03-23T10:37:04;15.75;;;9.15;;
76409;SDS011;65238;42.662;23.280;2024-03-23T10:39:31;15.50;;;9.05;;
76409;SDS011;65238;42.662;23.280;2024-03-23T10:41:58;13.50;;;7.97;;
76409;SDS011;65238;42.662;23.280;2024-03-23T10:44:25;17.55;;;7.75;;
76409;SDS011;65238;42.662;23.280;2024-03-23T10:46:54;12.52;;;8.40;;
76409;SDS011;65238;42.662;23.280;2024-03-23T10:49:24;16.58;;;8.40;;
76409;SDS011;65238;42.662;23.280;2024-03-23T10:51:51;13.32;;;8.45;;
76409;SDS011;65238;42.662;23.280;2024-03-23T10:54:17;13.98;;;8.50;;
76409;SDS011;65238;42.662;23.280;2024-03-23T10:56:43;15.38;;;8.90;;
76409;SDS011;65238;42.662;23.280;2024-03-23T10:59:09;14.85;;;8.65;;
76409;SDS011;65238;42.662;23.280;2024-03-23T11:01:35;16.88;;;9.05;;
76409;SDS011;65238;42.662;23.280;2024-03-23T11:04:33;16.45;;;7.28;;
76409;SDS011;65238;42.662;23.280;2024-03-23T11:07:00;11.00;;;6.88;;
76409;SDS011;65238;42.662;23.280;2024-03-23T11:12:15;15.27;;;8.25;;
76409;SDS011;65238;42.662;23.280;2024-03-23T11:14:49;15.05;;;9.05;;
76409;SDS011;65238;42.662;23.280;2024-03-23T11:17:19;17.35;;;8.88;;
76409;SDS011;65238;42.662;23.280;2024-03-23T11:19:54;14.82;;;8.73;;
76409;SDS011;65238;42.662;23.280;2024-03-23T11:25:18;17.42;;;9.60;;
76409;SDS011;65238;42.662;23.280;2024-03-23T11:27:49;15.55;;;7.82;;
76409;SDS011;65238;42.662;23.280;2024-03-23T11:30:19;15.30;;;8.60;;
76409;SDS011;65238;42.662;23.280;2024-03-23T11:32:47;11.82;;;7.78;;
76409;SDS011;65238;42.662;23.280;2024-03-23T11:35:25;15.02;;;8.27;;
76409;SDS011;65238;42.662;23.280;2024-03-23T11:40:34;15.35;;;8.68;;
76409;SDS011;65238;42.662;23.280;2024-03-23T11:43:12;14.25;;;8.40;;
76409;SDS011;65238;42.662;23.280;2024-03-23T11:45:45;11.68;;;7.47;;
76409;SDS011;65238;42.662;23.280;2024-03-23T11:48:20;14.40;;;8.43;;
76409;SDS011;65238;42.662;23.280;2024-03-23T11:50:47;17.77;;;9.70;;
76409;SDS011;65238;42.662;23.280;2024-03-23T11:53:14;15.75;;;8.02;;
76409;SDS011;65238;42.662;23.280;2024-03-23T11:55:45;13.05;;;6.28;;
76409;SDS011;65238;42.662;23.280;2024-03-23T11:58:18;12.75;;;6.88;;
76409;SDS011;65238;42.662;23.280;2024-03-23T12:03:16;5.60;;;3.55;;
76409;SDS011;65238;42.662;23.280;2024-03-23T12:05:46;3.97;;;2.83;;
76409;SDS011;65238;42.662;23.280;2024-03-23T12:10:50;4.63;;;2.75;;
76409;SDS011;65238;42.662;23.280;2024-03-23T12:13:19;2.45;;;1.90;;
76409;SDS011;65238;42.662;23.280;2024-03-23T12:15:46;3.28;;;1.90;;
76409;SDS011;65238;42.662;23.280;2024-03-23T12:18:15;2.58;;;1.40;;
76409;SDS011;65238;42.662;23.280;2024-03-23T12:20:41;2.00;;;1.50;;
76409;SDS011;65238;42.662;23.280;2024-03-23T12:25:32;4.25;;;2.22;;
76409;SDS011;65238;42.662;23.280;2024-03-23T12:28:01;6.65;;;1.80;;
76409;SDS011;65238;42.662;23.280;2024-03-23T12:30:26;3.70;;;2.10;;
76409;SDS011;65238;42.662;23.280;2024-03-23T12:32:52;4.32;;;2.10;;
76409;SDS011;65238;42.662;23.280;2024-03-23T12:35:17;4.28;;;1.42;;
76409;SDS011;65238;42.662;23.280;2024-03-23T12:37:43;4.78;;;1.40;;
76409;SDS011;65238;42.662;23.280;2024-03-23T12:40:09;2.78;;;1.73;;
76409;SDS011;65238;42.662;23.280;2024-03-23T12:42:35;2.55;;;1.48;;
76409;SDS011;65238;42.662;23.280;2024-03-23T12:45:00;5.55;;;1.83;;
76409;SDS011;65238;42.662;23.280;2024-03-23T12:47:26;3.70;;;1.77;;
76409;SDS011;65238;42.662;23.280;2024-03-23T12:49:52;3.20;;;1.70;;
76409;SDS011;65238;42.662;23.280;2024-03-23T12:52:17;1.92;;;1.77;;
76409;SDS011;65238;42.662;23.280;2024-03-23T12:54:42;2.70;;;1.90;;
76409;SDS011;65238;42.662;23.280;2024-03-23T12:57:08;3.15;;;1.67;;
76409;SDS011;65238;42.662;23.280;2024-03-23T12:59:34;4.15;;;1.50;;
76409;SDS011;65238;42.662;23.280;2024-03-23T13:02:00;2.67;;;1.70;;
76409;SDS011;65238;42.662;23.280;2024-03-23T13:04:26;6.90;;;1.50;;
76409;SDS011;65238;42.662;23.280;2024-03-23T13:06:51;5.70;;;2.05;;
76409;SDS011;65238;42.662;23.280;2024-03-23T13:09:16;3.13;;;1.95;;
76409;SDS011;65238;42.662;23.280;2024-03-23T13:11:42;4.97;;;1.35;;
76409;SDS011;65238;42.662;23.280;2024-03-23T13:14:07;4.75;;;1.52;;
76409;SDS011;65238;42.662;23.280;2024-03-23T13:16:33;2.10;;;1.63;;
76409;SDS011;65238;42.662;23.280;2024-03-23T13:18:58;1.63;;;1.23;;
76409;SDS011;65238;42.662;23.280;2024-03-23T13:21:23;2.33;;;1.30;;
76409;SDS011;65238;42.662;23.280;2024-03-23T13:23:49;1.77;;;1.40;;
76409;SDS011;65238;42.662;23.280;2024-03-23T13:26:16;2.17;;;1.40;;
76409;SDS011;65238;42.662;23.280;2024-03-23T13:28:41;2.25;;;1.52;;
76409;SDS011;65238;42.662;23.280;2024-03-23T13:31:07;2.08;;;1.17;;
76409;SDS011;65238;42.662;23.280;2024-03-23T13:33:33;3.10;;;1.38;;
76409;SDS011;65238;42.662;23.280;2024-03-23T13:35:58;7.43;;;3.70;;
76409;SDS011;65238;42.662;23.280;2024-03-23T13:38:24;2.35;;;1.50;;
76409;SDS011;65238;42.662;23.280;2024-03-23T13:40:54;3.38;;;1.67;;
76409;SDS011;65238;42.662;23.280;2024-03-23T13:43:19;3.42;;;1.77;;
76409;SDS011;65238;42.662;23.280;2024-03-23T13:45:48;2.33;;;1.52;;
76409;SDS011;65238;42.662;23.280;2024-03-23T13:48:15;4.13;;;1.85;;
76409;SDS011;65238;42.662;23.280;2024-03-23T13:50:41;4.57;;;2.05;;
76409;SDS011;65238;42.662;23.280;2024-03-23T13:53:06;3.38;;;2.03;;
76409;SDS011;65238;42.662;23.280;2024-03-23T13:55:33;4.82;;;2.42;;
76409;SDS011;65238;42.662;23.280;2024-03-23T13:57:58;2.50;;;1.60;;
76409;SDS011;65238;42.662;23.280;2024-03-23T14:00:23;7.80;;;5.20;;
76409;SDS011;65238;42.662;23.280;2024-03-23T14:02:49;4.07;;;1.90;;
76409;SDS011;65238;42.662;23.280;2024-03-23T14:05:14;2.25;;;1.48;;
76409;SDS011;65238;42.662;23.280;2024-03-23T14:07:40;4.22;;;1.80;;
76409;SDS011;65238;42.662;23.280;2024-03-23T14:10:05;4.63;;;1.60;;
76409;SDS011;65238;42.662;23.280;2024-03-23T14:12:31;3.40;;;1.80;;
76409;SDS011;65238;42.662;23.280;2024-03-23T14:14:57;3.63;;;1.88;;
76409;SDS011;65238;42.662;23.280;2024-03-23T14:17:22;2.50;;;1.60;;
76409;SDS011;65238;42.662;23.280;2024-03-23T14:19:48;2.38;;;1.33;;
76409;SDS011;65238;42.662;23.280;2024-03-23T14:22:13;6.40;;;1.90;;
76409;SDS011;65238;42.662;23.280;2024-03-23T14:24:38;4.22;;;2.08;;
76409;SDS011;65238;42.662;23.280;2024-03-23T14:27:04;5.47;;;2.42;;
76409;SDS011;65238;42.662;23.280;2024-03-23T14:29:32;5.63;;;2.58;;
76409;SDS011;65238;42.662;23.280;2024-03-23T14:31:59;4.45;;;2.50;;
76409;SDS011;65238;42.662;23.280;2024-03-23T14:34:25;3.95;;;2.30;;
76409;SDS011;65238;42.662;23.280;2024-03-23T14:36:53;5.53;;;2.70;;
76409;SDS011;65238;42.662;23.280;2024-03-23T14:39:22;3.38;;;2.58;;
76409;SDS011;65238;42.662;23.280;2024-03-23T14:41:49;3.80;;;2.45;;
76409;SDS011;65238;42.662;23.280;2024-03-23T14:44:15;3.58;;;2.20;;
76409;SDS011;65238;42.662;23.280;2024-03-23T14:46:40;4.63;;;2.30;;
76409;SDS011;65238;42.662;23.280;2024-03-23T14:49:07;5.88;;;3.30;;
76409;SDS011;65238;42.662;23.280;2024-03-23T14:51:33;4.07;;;2.65;;
76409;SDS011;65238;42.662;23.280;2024-03-23T14:53:58;4.60;;;2.78;;
76409;SDS011;65238;42.662;23.280;2024-03-23T14:56:24;5.82;;;2.97;;
76409;SDS011;65238;42.662;23.280;2024-03-23T14:58:52;5.72;;;3.30;;
76409;SDS011;65238;42.662;23.280;2024-03-23T15:01:20;5.33;;;2.77;;
76409;SDS011;65238;42.662;23.280;2024-03-23T15:03:46;5.20;;;2.92;;
76409;SDS011;65238;42.662;23.280;2024-03-23T15:06:12;4.80;;;2.60;;
76409;SDS011;65238;42.662;23.280;2024-03-23T15:08:38;4.53;;;3.25;;
76409;SDS011;65238;42.662;23.280;2024-03-23T15:11:05;5.68;;;2.97;;
76409;SDS011;65238;42.662;23.280;2024-03-23T15:13:34;7.35;;;3.00;;
76409;SDS011;65238;42.662;23.280;2024-03-23T15:16:03;5.43;;;2.90;;
76409;SDS011;65238;42.662;23.280;2024-03-23T15:18:30;5.20;;;2.83;;
76409;SDS011;65238;42.662;23.280;2024-03-23T15:20:56;6.03;;;3.00;;
76409;SDS011;65238;42.662;23.280;2024-03-23T15:23:27;4.07;;;2.57;;
76409;SDS011;65238;42.662;23.280;2024-03-23T15:25:59;3.60;;;2.22;;
76409;SDS011;65238;42.662;23.280;2024-03-23T15:28:25;7.68;;;2.70;;
76409;SDS011;65238;42.662;23.280;2024-03-23T15:31:04;5.97;;;2.67;;